createdAt,value
2019-04-30T00:01:39.556Z,1016.74
2019-04-30T00:06:39.409Z,1016.75
2019-04-30T00:11:36.286Z,1016.69
2019-04-30T00:16:36.360Z,1016.62
2019-04-30T00:21:31.015Z,1016.61
2019-04-30T00:26:26.815Z,1016.64
2019-04-30T00:31:27.264Z,1016.61
2019-04-30T00:36:29.087Z,1016.53
2019-04-30T00:41:25.625Z,1016.56
2019-04-30T00:46:25.005Z,1016.39
2019-04-30T00:51:21.588Z,1016.47
2019-04-30T00:56:24.751Z,1016.46
2019-04-30T01:01:19.060Z,1016.41
2019-04-30T01:06:17.246Z,1016.36
2019-04-30T01:11:15.427Z,1016.38
2019-04-30T01:16:10.944Z,1016.35
2019-04-30T01:21:11.153Z,1016.42
2019-04-30T01:26:08.646Z,1016.45
2019-04-30T01:31:04.376Z,1016.31
2019-04-30T01:36:04.163Z,1016.30
2019-04-30T01:40:59.659Z,1016.36
2019-04-30T01:45:55.559Z,1016.38
2019-04-30T01:50:51.056Z,1016.36
2019-04-30T01:55:47.072Z,1016.36
2019-04-30T02:00:42.748Z,1016.37
2019-04-30T02:05:38.766Z,1016.33
2019-04-30T02:10:34.792Z,1016.27
2019-04-30T02:15:31.262Z,1016.38
2019-04-30T02:20:28.692Z,1016.26
2019-04-30T02:25:25.567Z,1016.30
2019-04-30T02:30:21.263Z,1016.27
2019-04-30T02:35:19.503Z,1016.29
2019-04-30T02:40:14.783Z,1016.21
2019-04-30T02:45:10.627Z,1016.29
2019-04-30T02:50:15.499Z,1016.23
2019-04-30T02:55:05.165Z,1016.24
2019-04-30T03:00:01.576Z,1016.32
2019-04-30T03:05:00.005Z,1016.25
2019-04-30T03:09:55.415Z,1016.31
2019-04-30T03:14:50.886Z,1016.23
2019-04-30T03:19:46.931Z,1016.18
2019-04-30T03:24:44.401Z,1016.11
2019-04-30T03:29:40.668Z,1016.13
2019-04-30T03:34:41.375Z,1016.07
2019-04-30T03:39:39.679Z,1016.01
2019-04-30T03:44:34.641Z,1016.00
2019-04-30T03:49:30.333Z,1015.93
2019-04-30T03:54:25.985Z,1016.06
2019-04-30T03:59:21.671Z,1016.02
2019-04-30T04:04:20.096Z,1016.03
2019-04-30T04:09:15.618Z,1016.08
2019-04-30T04:14:12.624Z,1016.16
2019-04-30T04:19:09.634Z,1016.21
2019-04-30T04:24:04.832Z,1016.23
2019-04-30T04:29:00.945Z,1016.30
2019-04-30T04:33:59.813Z,1016.29
2019-04-30T04:38:55.344Z,1016.30
2019-04-30T04:43:51.396Z,1016.26
2019-04-30T04:48:49.434Z,1016.38
2019-04-30T04:53:44.996Z,1016.38
2019-04-30T04:58:40.845Z,1016.43
2019-04-30T05:03:36.618Z,1016.42
2019-04-30T05:08:32.676Z,1016.48
2019-04-30T05:13:29.628Z,1016.48
2019-04-30T05:18:25.253Z,1016.49
2019-04-30T05:23:22.008Z,1016.46
2019-04-30T05:28:19.046Z,1016.45
2019-04-30T05:33:14.481Z,1016.53
2019-04-30T05:38:10.654Z,1016.54
2019-04-30T05:43:09.041Z,1016.52
2019-04-30T05:48:06.131Z,1016.59
2019-04-30T05:53:03.180Z,1016.62
2019-04-30T05:58:01.482Z,1016.64
2019-04-30T06:02:56.670Z,1016.65
2019-04-30T06:07:52.569Z,1016.71
2019-04-30T06:12:49.382Z,1016.61
2019-04-30T06:17:57.049Z,1016.57
2019-04-30T06:22:44.830Z,1016.59
2019-04-30T06:27:40.720Z,1016.61
2019-04-30T06:32:36.824Z,1016.72
2019-04-30T06:37:33.873Z,1016.71
2019-04-30T06:42:30.194Z,1016.77
2019-04-30T06:47:33.045Z,1016.82
2019-04-30T06:52:26.153Z,1016.75
2019-04-30T06:57:22.173Z,1016.87
2019-04-30T07:02:19.816Z,1016.86
2019-04-30T07:07:21.334Z,1016.86
2019-04-30T07:12:25.496Z,1016.84
2019-04-30T07:17:14.225Z,1016.84
2019-04-30T07:22:09.916Z,1016.87
2019-04-30T07:27:05.806Z,1016.83
2019-04-30T07:32:02.714Z,1016.90
2019-04-30T07:37:11.800Z,1016.94
2019-04-30T07:42:00.085Z,1016.79
2019-04-30T07:46:55.913Z,1016.82
2019-04-30T07:51:52.890Z,1016.92
2019-04-30T07:56:50.634Z,1016.92
2019-04-30T08:02:03.740Z,1017.04
2019-04-30T08:06:45.848Z,1016.96
2019-04-30T08:11:43.827Z,1017.03
2019-04-30T08:16:42.101Z,1017.04
2019-04-30T08:21:38.880Z,1017.08
2019-04-30T08:26:36.043Z,1017.21
2019-04-30T08:31:33.256Z,1017.38
2019-04-30T08:36:33.002Z,1017.46
2019-04-30T08:41:29.285Z,1017.30
2019-04-30T08:46:25.368Z,1017.11
2019-04-30T08:51:20.485Z,1017.15
2019-04-30T08:56:15.318Z,1017.11
2019-04-30T09:01:13.685Z,1017.04
2019-04-30T09:06:09.411Z,1016.99
2019-04-30T09:11:05.204Z,1016.96
2019-04-30T09:16:01.014Z,1016.92
2019-04-30T09:21:04.148Z,1016.88
2019-04-30T09:25:58.625Z,1016.86
2019-04-30T09:30:54.065Z,1016.93
2019-04-30T09:35:52.006Z,1017.10
2019-04-30T09:40:50.707Z,1017.11
2019-04-30T09:45:49.580Z,1016.94
2019-04-30T09:50:46.429Z,1017.00
2019-04-30T09:55:44.429Z,1016.96
2019-04-30T10:00:40.749Z,1016.80
2019-04-30T10:05:38.971Z,1016.75
2019-04-30T10:10:35.038Z,1016.65
2019-04-30T10:15:31.383Z,1016.61
2019-04-30T10:20:27.949Z,1016.47
2019-04-30T10:25:23.987Z,1016.43
2019-04-30T10:30:21.202Z,1016.44
2019-04-30T10:35:18.380Z,1016.39
2019-04-30T10:40:15.424Z,1016.31
2019-04-30T10:45:12.215Z,1016.32
2019-04-30T10:50:09.902Z,1016.28
2019-04-30T10:55:09.333Z,1016.19
2019-04-30T11:00:04.752Z,1016.17
2019-04-30T11:05:01.300Z,1016.02
2019-04-30T11:09:58.873Z,1016.06
2019-04-30T11:14:54.994Z,1016.06
2019-04-30T11:19:51.782Z,1015.97
2019-04-30T11:24:58.825Z,1015.89
2019-04-30T11:29:49.586Z,1015.75
2019-04-30T11:34:46.522Z,1015.77
2019-04-30T11:39:43.006Z,1015.69
2019-04-30T11:44:40.347Z,1015.65
2019-04-30T11:49:35.871Z,1015.65
2019-04-30T11:54:33.297Z,1015.62
2019-04-30T11:59:29.924Z,1015.57
2019-04-30T12:04:26.262Z,1015.47
2019-04-30T12:09:22.478Z,1015.50
2019-04-30T12:14:18.237Z,1015.33
2019-04-30T12:19:13.704Z,1015.34
2019-04-30T12:24:08.089Z,1015.33
2019-04-30T12:29:05.064Z,1015.41
2019-04-30T12:33:59.667Z,1015.38
2019-04-30T12:38:55.240Z,1015.42
2019-04-30T12:43:52.116Z,1015.30
2019-04-30T12:48:49.403Z,1015.24
2019-04-30T12:53:44.963Z,1015.16
2019-04-30T12:58:40.403Z,1015.19
2019-04-30T13:03:39.954Z,1015.09
2019-04-30T13:08:36.871Z,1015.02
2019-04-30T13:13:33.040Z,1014.93
2019-04-30T13:18:29.672Z,1014.90
2019-04-30T13:23:25.911Z,1014.84
2019-04-30T13:28:21.467Z,1014.78
2019-04-30T13:33:20.262Z,1014.80
2019-04-30T13:38:15.867Z,1014.63
2019-04-30T13:43:11.436Z,1014.70
2019-04-30T13:48:08.799Z,1014.61
2019-04-30T13:53:03.947Z,1014.63
2019-04-30T13:57:59.425Z,1014.60
2019-04-30T14:02:55.390Z,1014.52
2019-04-30T14:07:51.162Z,1014.43
2019-04-30T14:12:47.955Z,1014.52
2019-04-30T14:17:43.473Z,1014.42
2019-04-30T14:22:40.303Z,1014.39
2019-04-30T14:27:48.547Z,1014.47
2019-04-30T14:32:36.460Z,1014.34
2019-04-30T14:37:33.214Z,1014.36
2019-04-30T14:42:29.851Z,1014.37
2019-04-30T14:47:26.778Z,1014.38
2019-04-30T14:52:23.173Z,1014.31
2019-04-30T14:57:18.758Z,1014.23
2019-04-30T15:02:14.920Z,1014.26
2019-04-30T15:07:11.081Z,1014.21
2019-04-30T15:12:06.826Z,1014.21
2019-04-30T15:17:02.942Z,1014.07
2019-04-30T15:22:00.985Z,1014.08
2019-04-30T15:26:58.340Z,1014.10
2019-04-30T15:31:54.415Z,1014.16
2019-04-30T15:36:51.203Z,1014.10
2019-04-30T15:41:46.857Z,1014.04
2019-04-30T15:46:42.700Z,1014.09
2019-04-30T15:51:38.696Z,1013.94
2019-04-30T15:56:39.973Z,1013.98
2019-04-30T16:01:35.541Z,1013.99
2019-04-30T16:06:31.560Z,1013.88
2019-04-30T16:11:29.437Z,1013.88
2019-04-30T16:16:24.714Z,1013.85
2019-04-30T16:21:21.969Z,1013.92
2019-04-30T16:26:17.880Z,1013.77
2019-04-30T16:31:13.515Z,1013.82
2019-04-30T16:36:10.722Z,1013.75
2019-04-30T16:41:06.283Z,1013.81
2019-04-30T16:46:03.050Z,1013.67
2019-04-30T16:50:58.728Z,1013.71
2019-04-30T16:55:54.616Z,1013.64
2019-04-30T17:00:50.922Z,1013.68
2019-04-30T17:05:49.887Z,1013.56
2019-04-30T17:10:45.132Z,1013.55
2019-04-30T17:15:40.784Z,1013.54
2019-04-30T17:20:38.571Z,1013.64
2019-04-30T17:25:34.001Z,1013.68
2019-04-30T17:30:30.835Z,1013.64
2019-04-30T17:35:26.509Z,1013.66
2019-04-30T17:40:26.466Z,1013.57
2019-04-30T17:45:21.440Z,1013.59
2019-04-30T17:50:18.765Z,1013.57
2019-04-30T17:55:14.036Z,1013.65
2019-04-30T18:00:16.906Z,1013.71
2019-04-30T18:05:11.114Z,1013.68
2019-04-30T18:10:08.767Z,1013.71
2019-04-30T18:15:04.228Z,1013.66
2019-04-30T18:19:59.883Z,1013.68
2019-04-30T18:24:55.783Z,1013.70
2019-04-30T18:29:51.907Z,1013.71
2019-04-30T18:34:49.099Z,1013.65
2019-04-30T18:39:44.289Z,1013.72
2019-04-30T18:44:40.938Z,1013.65
2019-04-30T18:49:39.370Z,1013.70
2019-04-30T18:54:35.362Z,1013.74
2019-04-30T18:59:32.674Z,1013.66
2019-04-30T19:04:28.840Z,1013.75
2019-04-30T19:09:24.364Z,1013.77
2019-04-30T19:14:20.440Z,1013.74
2019-04-30T19:19:16.369Z,1013.73
2019-04-30T19:24:12.718Z,1013.88
2019-04-30T19:29:09.557Z,1013.86
2019-04-30T19:34:06.096Z,1013.89
2019-04-30T19:39:02.365Z,1013.92
2019-04-30T19:43:57.935Z,1013.90
2019-04-30T19:48:54.783Z,1013.97
2019-04-30T19:53:50.759Z,1013.96
2019-04-30T19:58:55.679Z,1013.96
2019-04-30T20:03:46.227Z,1013.85
2019-04-30T20:08:41.970Z,1013.88
2019-04-30T20:13:37.656Z,1013.95
2019-04-30T20:18:33.412Z,1014.06
2019-04-30T20:23:29.261Z,1014.02
2019-04-30T20:28:25.103Z,1013.95
2019-04-30T20:33:20.961Z,1014.02
2019-04-30T20:38:16.715Z,1013.89
2019-04-30T20:43:13.018Z,1013.88
2019-04-30T20:48:09.036Z,1013.80
2019-04-30T20:53:05.200Z,1013.70
2019-04-30T20:58:00.889Z,1013.77
2019-04-30T21:02:59.772Z,1013.62
2019-04-30T21:07:54.800Z,1013.64
2019-04-30T21:12:50.624Z,1013.65
2019-04-30T21:17:48.369Z,1013.66
2019-04-30T21:22:45.532Z,1013.66
2019-04-30T21:27:41.239Z,1013.74
2019-04-30T21:32:38.295Z,1013.71
2019-04-30T21:37:33.853Z,1013.79
2019-04-30T21:42:29.827Z,1013.67
2019-04-30T21:47:25.531Z,1013.68
2019-04-30T21:52:21.026Z,1013.69
2019-04-30T21:57:17.947Z,1013.68
2019-04-30T22:02:14.529Z,1013.68
2019-04-30T22:07:11.109Z,1013.75
2019-04-30T22:12:06.500Z,1013.65
2019-04-30T22:17:01.998Z,1013.73
2019-04-30T22:21:59.453Z,1013.64
2019-04-30T22:26:56.278Z,1013.65
2019-04-30T22:31:51.404Z,1013.51
2019-04-30T22:36:48.938Z,1013.62
2019-04-30T22:41:43.854Z,1013.62
2019-04-30T22:46:39.656Z,1013.61
2019-04-30T22:51:35.547Z,1013.56
2019-04-30T22:56:33.151Z,1013.47
2019-04-30T23:01:28.808Z,1013.47
2019-04-30T23:06:24.363Z,1013.52
2019-04-30T23:11:21.306Z,1013.58
2019-04-30T23:16:17.879Z,1013.57
2019-04-30T23:21:14.558Z,1013.50
2019-04-30T23:26:10.040Z,1013.43
2019-04-30T23:31:05.641Z,1013.37
2019-04-30T23:36:01.400Z,1013.29
2019-04-30T23:40:57.073Z,1013.30
2019-04-30T23:45:52.895Z,1013.17
2019-04-30T23:50:48.791Z,1013.20
2019-04-30T23:55:44.596Z,1013.17
